Onde está Vale de Santarém en Portugal?

Vale de Santarém está situado na região Santarem em Portugal!

Buscar o nome de uma cidade:

Valeni-Stinisoara, Valea Iclanlului, Valea Singeorgiului, Vale de Junco, Vale

Aqui você vai encontrar a localização de Vale de Santarém em um mapa.
Para ver como ele atualmente parece, abaixo estão algumas fotos da região, com webcams online.
Você também pode encontrar a distância para as principais cidades da região e de cidades do resto do Portugal.

Todos os lugares do mundo chamado .

new

Onde está Vale de Santarém no mapa?


Webcams perto Vale de Santarém

Vasco Carão > South: Garrocheira, Benavente - Airport.


Vasco Carão > South: Garrocheira, Benavente - Airport - Dia
Actual
Vasco Carão > South: Garrocheira, Benavente - Airport - Actual

Benavente > North-East: AIrport, METAR: BENAV 180005Z 36004KT 17/14 Q1015.


Benavente > North-East: AIrport, METAR: BENAV 180005Z 36004KT 17/14 Q1015 - Dia
Actual
Benavente > North-East: AIrport, METAR: BENAV 180005Z 36004KT 17/14 Q1015 - Actual

Caldas da Rainha.


Caldas da Rainha - Dia
Actual
Caldas da Rainha - Actual

Webcams provided by webcams.travel

Distâncias

Onde está Vale de Santarém em relação a outros lugares?

Top 10 cidades em Santarem e distância de Vale de Santarém.

Cidade#Populaçãokmmilhas
Santarém12938564
Entroncamento2198873924
Tomar3191685333
Torres Novas4145263522
Samora Correia5141543119
Abrantes6136465534
Ourém7127295132
Rio Maior8120642415
Fátima9117984830
Almeirim1011556106

Top 10 cidades em Portugal e distância de Vale de Santarém.

Cidade # Populaçãokmmilhas
Lisbon15177986339
Porto2249630219136
Amadora31788566641
Braga4121393264164
Setúbal51171097446
Coimbra610658011672
Queluz71033986641
Funchal8980411035643
Vila Nova de Gaia970810216134
Loures10662305534